Airfield :
LOGIN :

Register | Disclaimer

   EN    FR    IT 

 










Legend :    VFR   Marginal VFR   IFR   Intensive IFR   Very Intensive IFR
Visi :
Ceiling :
>= 8 km
>= 3000ft
5 to 8 km
1000 to 3000 ft
1500m to 5 km
500 to 1000 ft
800 to 1500m
200 to 500 ft
< 800m
< 200 ft
Symbols :   Thunderstorms  Fog  Heavy snow  Heavy precipitations  Wind > 20 kt
SIGMETs :     Misc.  Thunderstorms  Icing  Turbulence  Mountain Waves  Volcanic Ashes






- Airport Elevation : 195 ft


LFMY - Salon de Provence

CURRENT METAR :
  • 250430Z AUTO 36009KT 310V030 CAVOK 17/08 Q1010

EXPIRED METARs :
  • 250400Z AUTO 33007KT 260V030 CAVOK 17/08 Q1010
  • 250330Z AUTO 31007KT 260V340 CAVOK 17/08 Q1010
  • 250300Z AUTO 33012KT 290V360 CAVOK 17/08 Q1009
  • 250230Z AUTO 32011KT 280V350 CAVOK 18/08 Q1009
  • 250200Z AUTO 32012KT 290V350 CAVOK 18/08 Q1009

TAF TAF LFMY
Valid from the 25 at 04:00 until the 26 at 03:00 UTC


250427Z 2504/2603 34012KT CAVOK TX25/2512Z TN17/2504Z
TEMPO 2504/2508 -RA BKN080TCU
TEMPO 2508/2522 34015G25KT



MET'MAP, your aeronautical weather chart ! - Copyright ORBIFLY December 2007 - Disclaimer

ORBIFLY MET'MAP TEAM :

Programming & Development : Alexandra Zaïnal
Original concept : Baudouin d'Aumeries
Technical & hardware support : Manuel Goepfert
Assistance : Marc-Olivier Méhu

Contact : metmap@orbifly.com




SOURCES & CREDITS :

   NOAA